< < Back
Terminal Aerodrome Forecast


Current Version              Previous Versions:   1  2  3  4  5  6  7  8  9  

Terminal Aerodrome Forecast

848
FTUS42 KGSP 300500
TAFAVL
TAF
KAVL 300532Z 3006/3106 21003KT P6SM SCT045
     FM300700 00000KT 3SM BR BKN017
      TEMPO 3008/3012 1/2SM FG BKN003
     FM301400 00000KT P6SM BKN250
     FM301800 18006KT P6SM BKN045
     FM310300 00000KT P6SM VCSH BKN045=



Latest METAR

632
SAUS70 KWBC 301204
MTRAVL
METAR KAVL 301154Z COR 00000KT 2SM BR FEW002 FEW005 19/18 A3027 RMK AO2
SLP223 T01890183 10217 20183 53007 $


USA.gov is the U.S. government's official web portal to all federal, state and local government web resources and services.